createdAt,value
2019-05-28T00:03:08.990Z,99.90
2019-05-28T00:06:33.177Z,99.90
2019-05-28T00:09:57.050Z,99.90
2019-05-28T00:13:20.980Z,99.90
2019-05-28T00:16:44.778Z,99.90
2019-05-28T00:20:09.058Z,99.90
2019-05-28T00:23:32.916Z,99.90
2019-05-28T00:26:56.680Z,99.90
2019-05-28T00:30:21.238Z,99.90
2019-05-28T00:33:44.978Z,99.90
2019-05-28T00:37:08.863Z,99.90
2019-05-28T00:40:32.595Z,99.90
2019-05-28T00:43:56.390Z,99.90
2019-05-28T00:47:20.247Z,99.90
2019-05-28T00:50:44.220Z,99.90
2019-05-28T00:54:08.069Z,99.90
2019-05-28T00:57:32.420Z,99.90
2019-05-28T01:00:56.396Z,99.90
2019-05-28T01:04:20.286Z,99.90
2019-05-28T01:07:44.168Z,99.90
2019-05-28T01:11:07.898Z,99.90
2019-05-28T01:14:31.961Z,99.90
2019-05-28T01:17:56.043Z,99.90
2019-05-28T01:21:19.795Z,99.90
2019-05-28T01:24:43.623Z,99.90
2019-05-28T01:28:07.546Z,99.90
2019-05-28T01:31:31.375Z,99.90
2019-05-28T01:34:55.163Z,99.90
2019-05-28T01:38:18.925Z,99.90
2019-05-28T01:41:42.733Z,99.90
2019-05-28T01:45:07.891Z,99.90
2019-05-28T01:48:31.861Z,99.90
2019-05-28T01:51:55.671Z,99.90
2019-05-28T01:55:19.643Z,99.90
2019-05-28T01:58:43.443Z,99.90
2019-05-28T02:02:07.307Z,99.90
2019-05-28T02:05:31.018Z,99.90
2019-05-28T02:08:54.935Z,99.90
2019-05-28T02:12:18.799Z,99.90
2019-05-28T02:15:42.896Z,99.90
2019-05-28T02:19:06.724Z,99.90
2019-05-28T02:22:30.872Z,99.90
2019-05-28T02:25:54.883Z,99.90
2019-05-28T02:29:18.785Z,99.90
2019-05-28T02:32:42.570Z,99.90
2019-05-28T02:36:06.342Z,99.90
2019-05-28T02:39:30.276Z,99.90
2019-05-28T02:42:54.072Z,99.90
2019-05-28T02:46:17.856Z,99.90
2019-05-28T02:49:41.755Z,99.90
2019-05-28T02:53:05.605Z,99.90
2019-05-28T02:56:32.055Z,99.90
2019-05-28T02:59:59.096Z,99.90
2019-05-28T03:03:24.767Z,99.90
2019-05-28T03:06:50.789Z,99.90
2019-05-28T03:10:14.960Z,99.90
2019-05-28T03:13:38.718Z,99.90
2019-05-28T03:17:04.469Z,99.90
2019-05-28T03:20:28.248Z,99.90
2019-05-28T03:23:53.926Z,99.90
2019-05-28T03:27:17.764Z,99.90
2019-05-28T03:30:41.712Z,99.90
2019-05-28T03:34:05.474Z,99.90
2019-05-28T03:37:30.781Z,99.90
2019-05-28T03:40:54.571Z,99.90
2019-05-28T03:44:18.363Z,99.90
2019-05-28T03:47:42.103Z,99.90
2019-05-28T03:51:06.033Z,99.90
2019-05-28T03:54:29.816Z,99.90
2019-05-28T03:57:53.666Z,99.90
2019-05-28T04:01:17.512Z,99.90
2019-05-28T04:04:41.456Z,99.90
2019-05-28T04:08:05.441Z,99.90
2019-05-28T04:11:43.975Z,99.90
2019-05-28T04:14:55.252Z,99.90
2019-05-28T04:18:19.018Z,99.90
2019-05-28T04:21:42.784Z,99.90
2019-05-28T04:25:07.535Z,99.90
2019-05-28T04:28:31.288Z,99.90
2019-05-28T04:31:55.190Z,99.90
2019-05-28T04:35:19.039Z,99.90
2019-05-28T04:38:42.870Z,99.90
2019-05-28T04:42:06.735Z,99.90
2019-05-28T04:45:30.513Z,99.90
2019-05-28T04:48:54.329Z,99.90
2019-05-28T04:52:18.228Z,99.90
2019-05-28T04:55:41.966Z,99.90
2019-05-28T04:59:05.996Z,99.90
2019-05-28T05:02:29.919Z,99.90
2019-05-28T05:05:53.657Z,99.90
2019-05-28T05:09:17.429Z,99.90
2019-05-28T05:12:41.353Z,99.90
2019-05-28T05:16:05.231Z,99.90
2019-05-28T05:19:29.123Z,99.90
2019-05-28T05:22:52.856Z,99.90
2019-05-28T05:26:16.748Z,99.90
2019-05-28T05:29:42.096Z,99.90
2019-05-28T05:33:19.313Z,99.90
2019-05-28T05:36:31.337Z,99.90
2019-05-28T05:39:55.239Z,99.90
2019-05-28T05:43:19.030Z,99.90
2019-05-28T05:46:42.932Z,99.90
2019-05-28T05:50:06.983Z,99.90
2019-05-28T05:53:30.757Z,99.90
2019-05-28T05:56:54.899Z,99.90
2019-05-28T06:00:20.342Z,99.90
2019-05-28T06:03:44.088Z,99.90
2019-05-28T06:07:07.960Z,99.90
2019-05-28T06:10:31.710Z,99.90
2019-05-28T06:13:55.591Z,99.90
2019-05-28T06:17:19.364Z,99.90
2019-05-28T06:20:43.289Z,99.90
2019-05-28T06:24:07.127Z,99.90
2019-05-28T06:27:31.140Z,99.90
2019-05-28T06:30:54.878Z,99.90
2019-05-28T06:34:18.663Z,99.90
2019-05-28T06:37:42.438Z,99.90
2019-05-28T06:41:06.197Z,99.90
2019-05-28T06:44:30.015Z,99.90
2019-05-28T06:47:53.869Z,99.90
2019-05-28T06:51:17.611Z,99.90
2019-05-28T06:54:41.551Z,99.90
2019-05-28T06:58:05.518Z,99.90
2019-05-28T07:01:29.403Z,99.90
2019-05-28T07:04:53.388Z,99.90
2019-05-28T07:08:17.148Z,99.90
2019-05-28T07:11:40.958Z,99.90
2019-05-28T07:15:07.412Z,99.90
2019-05-28T07:18:31.184Z,99.90
2019-05-28T07:21:55.012Z,99.90
2019-05-28T07:25:19.354Z,99.90
2019-05-28T07:28:43.169Z,99.90
2019-05-28T07:32:07.013Z,99.90
2019-05-28T07:35:44.576Z,99.90
2019-05-28T07:38:56.669Z,99.90
2019-05-28T07:42:32.150Z,99.90
2019-05-28T07:45:46.128Z,99.90
2019-05-28T07:49:09.940Z,99.90
2019-05-28T07:52:33.991Z,99.90
2019-05-28T07:55:57.918Z,99.90
2019-05-28T07:59:22.034Z,95.70
2019-05-28T08:02:45.936Z,90.00
2019-05-28T08:06:09.833Z,79.50
2019-05-28T08:09:33.591Z,82.90
2019-05-28T08:12:57.343Z,82.00
2019-05-28T08:16:24.009Z,84.40
2019-05-28T08:19:46.618Z,88.70
2019-05-28T08:23:10.483Z,78.30
2019-05-28T08:26:34.317Z,72.80
2019-05-28T08:29:58.126Z,73.90
2019-05-28T08:33:22.113Z,72.00
2019-05-28T08:37:03.744Z,76.10
2019-05-28T08:40:12.218Z,76.50
2019-05-28T08:43:36.175Z,65.30
2019-05-28T08:46:59.961Z,82.00
2019-05-28T08:50:33.639Z,90.70
2019-05-28T08:53:49.665Z,91.20
2019-05-28T08:57:13.559Z,96.20
2019-05-28T09:00:44.902Z,99.40
2019-05-28T09:04:08.666Z,99.90
2019-05-28T09:07:32.681Z,99.90
2019-05-28T09:10:56.555Z,99.90
2019-05-28T09:14:20.439Z,99.90
2019-05-28T09:17:44.331Z,99.90
2019-05-28T09:21:08.078Z,99.90
2019-05-28T09:24:32.088Z,99.90
2019-05-28T09:27:55.945Z,99.90
2019-05-28T09:31:19.836Z,99.90
2019-05-28T09:34:43.712Z,99.90
2019-05-28T09:38:07.509Z,99.90
2019-05-28T09:41:31.359Z,99.90
2019-05-28T09:44:55.179Z,99.90
2019-05-28T09:48:18.979Z,99.90
2019-05-28T09:51:42.919Z,99.90
2019-05-28T09:55:07.516Z,99.90
2019-05-28T09:58:31.371Z,99.90
2019-05-28T10:01:55.289Z,99.90
2019-05-28T10:05:19.278Z,99.90
2019-05-28T10:08:43.791Z,99.90
2019-05-28T10:12:07.825Z,99.90
2019-05-28T10:15:32.862Z,99.90
2019-05-28T10:18:57.043Z,99.90
2019-05-28T10:22:20.907Z,99.90
2019-05-28T10:25:44.801Z,99.90
2019-05-28T10:29:09.207Z,99.90
2019-05-28T10:32:33.522Z,99.90
2019-05-28T10:35:57.211Z,99.90
2019-05-28T10:39:21.020Z,99.90
2019-05-28T10:42:44.722Z,99.90
2019-05-28T10:46:08.741Z,99.90
2019-05-28T10:49:32.698Z,99.90
2019-05-28T10:52:56.605Z,99.90
2019-05-28T10:56:20.421Z,99.90
2019-05-28T10:59:44.339Z,99.90
2019-05-28T11:03:08.116Z,99.90
2019-05-28T11:06:31.960Z,99.90
2019-05-28T11:09:55.855Z,99.90
2019-05-28T11:13:19.895Z,99.90
2019-05-28T11:16:43.686Z,99.90
2019-05-28T11:20:09.155Z,99.90
2019-05-28T11:23:33.068Z,99.90
2019-05-28T11:26:56.811Z,99.90
2019-05-28T11:30:22.403Z,99.90
2019-05-28T11:33:47.067Z,99.90
2019-05-28T11:37:10.814Z,99.90
2019-05-28T11:40:34.824Z,99.90
2019-05-28T11:43:58.552Z,99.90
2019-05-28T11:47:22.361Z,99.90
2019-05-28T11:50:46.222Z,99.90
2019-05-28T11:54:10.058Z,99.90
2019-05-28T11:57:33.926Z,99.90
2019-05-28T12:00:57.875Z,99.90
2019-05-28T12:04:21.775Z,99.90
2019-05-28T12:07:45.570Z,99.90
2019-05-28T12:11:11.155Z,99.90
2019-05-28T12:14:34.952Z,99.90
2019-05-28T12:17:58.944Z,99.90
2019-05-28T12:21:22.736Z,99.90
2019-05-28T12:24:46.553Z,99.90
2019-05-28T12:28:10.353Z,99.90
2019-05-28T12:31:34.114Z,99.90
2019-05-28T12:34:58.054Z,99.90
2019-05-28T12:38:21.890Z,99.90
2019-05-28T12:42:01.176Z,99.90
2019-05-28T12:45:12.735Z,99.90
2019-05-28T12:48:36.514Z,99.90
2019-05-28T12:52:00.250Z,99.90
2019-05-28T12:55:24.413Z,99.90
2019-05-28T12:58:48.202Z,99.90
2019-05-28T13:02:12.051Z,99.90
2019-05-28T13:05:35.830Z,99.90
2019-05-28T13:08:59.709Z,99.90
2019-05-28T13:12:23.657Z,99.90
2019-05-28T13:15:47.950Z,99.90
2019-05-28T13:19:11.865Z,99.90
2019-05-28T13:22:35.670Z,99.90
2019-05-28T13:25:59.648Z,99.90
2019-05-28T13:29:24.939Z,99.90
2019-05-28T13:32:48.831Z,99.90
2019-05-28T13:36:12.939Z,99.90
2019-05-28T13:39:36.736Z,99.90
2019-05-28T13:43:00.538Z,99.90
2019-05-28T13:46:24.551Z,99.90
2019-05-28T13:49:48.306Z,99.90
2019-05-28T13:53:12.098Z,99.90
2019-05-28T13:56:35.930Z,99.90
2019-05-28T14:00:01.329Z,99.90
2019-05-28T14:03:25.324Z,99.90
2019-05-28T14:06:49.329Z,99.90
2019-05-28T14:10:15.323Z,99.90
2019-05-28T14:13:39.155Z,99.90
2019-05-28T14:17:03.971Z,99.90
2019-05-28T14:20:27.859Z,99.90
2019-05-28T14:23:52.822Z,99.90
2019-05-28T14:27:16.553Z,99.90
2019-05-28T14:30:58.272Z,99.90
2019-05-28T14:34:05.778Z,99.90
2019-05-28T14:37:29.823Z,99.90
2019-05-28T14:40:53.858Z,99.90
2019-05-28T14:44:17.574Z,99.90
2019-05-28T14:47:42.665Z,99.90
2019-05-28T14:51:06.443Z,99.90
2019-05-28T14:54:30.609Z,99.90
2019-05-28T14:57:55.369Z,99.90
2019-05-28T15:01:19.903Z,99.90
2019-05-28T15:04:43.781Z,99.90
2019-05-28T15:08:08.130Z,99.90
2019-05-28T15:11:32.061Z,99.90
2019-05-28T15:14:55.785Z,99.90
2019-05-28T15:18:19.595Z,99.90
2019-05-28T15:21:43.449Z,99.90
2019-05-28T15:25:10.131Z,99.90
2019-05-28T15:28:33.987Z,99.90
2019-05-28T15:31:57.897Z,99.90
2019-05-28T15:35:22.972Z,99.90
2019-05-28T15:38:47.085Z,99.90
2019-05-28T15:42:19.958Z,99.90
2019-05-28T15:45:36.609Z,99.90
2019-05-28T15:49:00.347Z,99.90
2019-05-28T15:52:24.751Z,99.90
2019-05-28T15:55:48.638Z,99.90
2019-05-28T15:59:12.591Z,99.90
2019-05-28T16:02:36.590Z,99.90
2019-05-28T16:06:00.479Z,99.90
2019-05-28T16:09:24.351Z,99.90
2019-05-28T16:12:48.156Z,99.90
2019-05-28T16:16:11.894Z,99.90
2019-05-28T16:19:35.773Z,99.90
2019-05-28T16:22:59.545Z,99.90
2019-05-28T16:26:23.330Z,99.90
2019-05-28T16:29:47.318Z,99.90
2019-05-28T16:33:11.235Z,99.90
2019-05-28T16:36:35.128Z,99.90
2019-05-28T16:40:13.442Z,99.90
2019-05-28T16:43:25.585Z,99.90
2019-05-28T16:47:14.439Z,99.90
2019-05-28T16:50:17.119Z,99.90
2019-05-28T16:53:41.046Z,99.90
2019-05-28T16:57:05.667Z,99.90
2019-05-28T17:00:29.419Z,99.90
2019-05-28T17:03:53.644Z,99.90
2019-05-28T17:07:17.381Z,99.90
2019-05-28T17:10:41.978Z,99.90
2019-05-28T17:14:05.790Z,99.90
2019-05-28T17:17:29.620Z,99.90
2019-05-28T17:20:53.680Z,99.90
2019-05-28T17:24:17.460Z,99.90
2019-05-28T17:27:41.476Z,99.90
2019-05-28T17:31:05.481Z,99.90
2019-05-28T17:34:29.364Z,99.90
2019-05-28T17:37:53.335Z,99.90
2019-05-28T17:41:19.856Z,99.90
2019-05-28T17:44:42.671Z,99.90
2019-05-28T17:48:06.513Z,99.90
2019-05-28T17:51:30.627Z,99.90
2019-05-28T17:54:54.428Z,99.90
2019-05-28T17:58:18.523Z,99.90
2019-05-28T18:01:42.558Z,99.90
2019-05-28T18:05:07.129Z,99.90
2019-05-28T18:08:31.887Z,99.90
2019-05-28T18:11:55.733Z,99.90
2019-05-28T18:15:19.597Z,99.90
2019-05-28T18:18:44.365Z,99.90
2019-05-28T18:22:08.762Z,99.90
2019-05-28T18:25:34.180Z,99.90
2019-05-28T18:28:58.417Z,99.90
2019-05-28T18:32:22.341Z,99.90
2019-05-28T18:35:46.166Z,99.90
2019-05-28T18:39:10.626Z,99.90
2019-05-28T18:42:34.782Z,99.90
2019-05-28T18:45:59.386Z,99.90
2019-05-28T18:49:23.244Z,99.90
2019-05-28T18:52:47.266Z,99.90
2019-05-28T18:56:17.573Z,99.90
2019-05-28T18:59:39.375Z,99.90
2019-05-28T19:03:04.517Z,99.90
2019-05-28T19:06:29.786Z,99.90
2019-05-28T19:09:57.118Z,99.90
2019-05-28T19:13:21.200Z,99.90
2019-05-28T19:16:45.096Z,99.90
2019-05-28T19:20:10.082Z,99.90
2019-05-28T19:23:34.454Z,99.90
2019-05-28T19:26:58.531Z,99.90
2019-05-28T19:30:34.487Z,99.90
2019-05-28T19:33:58.711Z,99.90
2019-05-28T19:37:23.278Z,99.90
2019-05-28T19:40:47.140Z,99.90
2019-05-28T19:44:10.964Z,99.90
2019-05-28T19:47:34.947Z,99.90
2019-05-28T19:50:59.249Z,99.90
2019-05-28T19:54:23.295Z,99.90
2019-05-28T19:57:48.235Z,99.90
2019-05-28T20:01:12.114Z,99.90
2019-05-28T20:04:36.733Z,99.90
2019-05-28T20:08:00.861Z,99.90
2019-05-28T20:11:24.889Z,99.90
2019-05-28T20:14:48.786Z,99.90
2019-05-28T20:18:25.798Z,99.90
2019-05-28T20:21:38.825Z,99.90
2019-05-28T20:25:02.744Z,99.90
2019-05-28T20:28:26.649Z,99.90
2019-05-28T20:31:50.485Z,99.90
2019-05-28T20:35:14.515Z,99.90
2019-05-28T20:38:38.785Z,99.90
2019-05-28T20:42:03.962Z,99.90
2019-05-28T20:45:28.009Z,99.90
2019-05-28T20:48:51.894Z,99.90
2019-05-28T20:52:15.734Z,99.90
2019-05-28T20:55:39.581Z,99.90
2019-05-28T20:59:03.617Z,99.90
2019-05-28T21:02:27.830Z,99.90
2019-05-28T21:05:52.842Z,99.90
2019-05-28T21:09:17.126Z,99.90
2019-05-28T21:12:44.223Z,99.90
2019-05-28T21:16:07.448Z,99.90
2019-05-28T21:19:32.968Z,99.90
2019-05-28T21:23:00.392Z,99.90
2019-05-28T21:26:25.507Z,99.90
2019-05-28T21:29:52.151Z,99.90
2019-05-28T21:33:16.472Z,99.90
2019-05-28T21:36:40.659Z,99.90
2019-05-28T21:40:05.996Z,99.90
2019-05-28T21:43:29.895Z,99.90
2019-05-28T21:46:54.664Z,99.90
2019-05-28T21:50:22.116Z,99.90
2019-05-28T21:53:45.902Z,99.90
2019-05-28T21:57:10.160Z,99.90
2019-05-28T22:00:44.725Z,99.90
2019-05-28T22:04:09.853Z,99.90
2019-05-28T22:07:33.735Z,99.90
2019-05-28T22:10:57.738Z,99.90
2019-05-28T22:14:21.779Z,99.90
2019-05-28T22:17:45.637Z,99.90
2019-05-28T22:21:09.541Z,99.90
2019-05-28T22:24:33.442Z,99.90
2019-05-28T22:27:58.441Z,99.90
2019-05-28T22:31:22.424Z,99.90
2019-05-28T22:34:46.243Z,99.90
2019-05-28T22:38:10.198Z,99.90
2019-05-28T22:41:34.683Z,99.90
2019-05-28T22:44:58.759Z,99.90
2019-05-28T22:48:22.710Z,99.90
2019-05-28T22:51:46.632Z,99.90
2019-05-28T22:55:10.695Z,99.90
2019-05-28T22:58:34.578Z,99.90
2019-05-28T23:01:58.730Z,99.90
2019-05-28T23:05:22.482Z,99.90
2019-05-28T23:08:46.328Z,99.90
2019-05-28T23:12:10.211Z,99.90
2019-05-28T23:15:34.124Z,99.90
2019-05-28T23:18:57.969Z,99.90
2019-05-28T23:22:21.816Z,99.90
2019-05-28T23:25:46.267Z,99.90
2019-05-28T23:29:10.209Z,99.90
2019-05-28T23:32:34.120Z,99.90
2019-05-28T23:35:58.005Z,99.90
2019-05-28T23:39:21.902Z,99.90
2019-05-28T23:42:45.780Z,99.90
2019-05-28T23:46:09.951Z,99.90
2019-05-28T23:49:34.053Z,99.90
2019-05-28T23:52:58.003Z,99.90
2019-05-28T23:56:21.868Z,99.90
2019-05-28T23:59:45.642Z,99.90
